<?xml version="1.0" encoding="UTF-8"?>
<gpx creator="Garmin Connect" version="1.1"
  xsi:schemaLocation="http://www.topografix.com/GPX/1/1 http://www.topografix.com/GPX/11.xsd"
  xmlns:ns3="http://www.garmin.com/xmlschemas/TrackPointExtension/v1"
  xmlns="http://www.topografix.com/GPX/1/1"
  xmlns:xsi="http://www.w3.org/2001/XMLSchema-instance" xmlns:ns2="http://www.garmin.com/xmlschemas/GpxExtensions/v3">
  <metadata>
    <name>KintteronKymppi</name>
    <link href="connect.garmin.com">
      <text>Garmin Connect</text>
    </link>
    <time>2020-10-30T13:10:49.000Z</time>
  </metadata>
  <trk>
    <name>KintteronKymppi</name>
    <trkseg>
      <trkpt lat="60.993383816601686" lon="25.57666594633446">
        <ele>148.32571411132812</ele>
        <time>2020-10-30T13:10:49.000Z</time>
      </trkpt>
      <trkpt lat="60.993711445027465" lon="25.5765939876437">
        <ele>148.7601318359375</ele>
        <time>2020-10-30T13:10:49.007Z</time>
      </trkpt>
      <trkpt lat="60.99401319354166" lon="25.576157625764615">
        <ele>150.17462158203125</ele>
        <time>2020-10-30T13:10:49.021Z</time>
      </trkpt>
      <trkpt lat="60.99408427208054" lon="25.575906503945596">
        <ele>150.49693298339844</ele>
        <time>2020-10-30T13:10:49.038Z</time>
      </trkpt>
      <trkpt lat="60.99442843302476" lon="25.57531608268613">
        <ele>151.47305297851562</ele>
        <time>2020-10-30T13:10:49.064Z</time>
      </trkpt>
      <trkpt lat="60.99462146825482" lon="25.57516369968652">
        <ele>152.066650390625</ele>
        <time>2020-10-30T13:10:49.094Z</time>
      </trkpt>
      <trkpt lat="60.99475784181942" lon="25.574951637536255">
        <ele>152.68643188476562</ele>
        <time>2020-10-30T13:10:49.127Z</time>
      </trkpt>
      <trkpt lat="60.99498909852792" lon="25.57388411834831">
        <ele>155.09634399414062</ele>
        <time>2020-10-30T13:10:49.172Z</time>
      </trkpt>
      <trkpt lat="60.995217840665475" lon="25.573818990960714">
        <ele>155.53448486328125</ele>
        <time>2020-10-30T13:10:49.221Z</time>
      </trkpt>
      <trkpt lat="60.99537349260736" lon="25.573275759816152">
        <ele>156.68931579589844</ele>
        <time>2020-10-30T13:10:49.277Z</time>
      </trkpt>
      <trkpt lat="60.9954150668471" lon="25.57286823168395">
        <ele>157.5015411376953</ele>
        <time>2020-10-30T13:10:49.337Z</time>
      </trkpt>
      <trkpt lat="60.99548354699603" lon="25.57238006964326">
        <ele>158.4879150390625</ele>
        <time>2020-10-30T13:10:49.402Z</time>
      </trkpt>
      <trkpt lat="60.99543543487181" lon="25.571610275655928">
        <ele>159.93096923828125</ele>
        <time>2020-10-30T13:10:49.474Z</time>
      </trkpt>
      <trkpt lat="60.99549771241236" lon="25.571241220459306">
        <ele>160.6842498779297</ele>
        <time>2020-10-30T13:10:49.550Z</time>
      </trkpt>
      <trkpt lat="60.995490001061455" lon="25.57088733650745">
        <ele>161.35801696777344</ele>
        <time>2020-10-30T13:10:49.629Z</time>
      </trkpt>
      <trkpt lat="60.99551305129518" lon="25.570279313251334">
        <ele>162.54176330566406</ele>
        <time>2020-10-30T13:10:49.714Z</time>
      </trkpt>
      <trkpt lat="60.99558102852991" lon="25.569857619702823">
        <ele>163.40017700195312</ele>
        <time>2020-10-30T13:10:49.804Z</time>
      </trkpt>
      <trkpt lat="60.995436859795355" lon="25.569464005529852">
        <ele>164.05198669433594</ele>
        <time>2020-10-30T13:10:49.898Z</time>
      </trkpt>
      <trkpt lat="60.99521658338" lon="25.569056309759592">
        <ele>164.676025390625</ele>
        <time>2020-10-30T13:10:49.998Z</time>
      </trkpt>
      <trkpt lat="60.99507761142543" lon="25.56882731616496">
        <ele>164.94143676757812</ele>
        <time>2020-10-30T13:10:50.102Z</time>
      </trkpt>
      <trkpt lat="60.99496219261874" lon="25.568489944562295">
        <ele>165.40902709960938</ele>
        <time>2020-10-30T13:10:50.210Z</time>
      </trkpt>
      <trkpt lat="60.99497912406315" lon="25.567768346518267">
        <ele>166.70175170898438</ele>
        <time>2020-10-30T13:10:50.325Z</time>
      </trkpt>
      <trkpt lat="60.995019943931595" lon="25.56700157001609">
        <ele>166.8363800048828</ele>
        <time>2020-10-30T13:10:50.448Z</time>
      </trkpt>
      <trkpt lat="60.995094123774656" lon="25.56680920533831">
        <ele>166.9929656982422</ele>
        <time>2020-10-30T13:10:50.573Z</time>
      </trkpt>
      <trkpt lat="60.99529386452726" lon="25.566428918391413">
        <ele>167.36734008789062</ele>
        <time>2020-10-30T13:10:50.703Z</time>
      </trkpt>
      <trkpt lat="60.99548069714895" lon="25.5665614362806">
        <ele>167.64285278320312</ele>
        <time>2020-10-30T13:10:50.837Z</time>
      </trkpt>
      <trkpt lat="60.99555948703874" lon="25.566474767401818">
        <ele>167.77613830566406</ele>
        <time>2020-10-30T13:10:50.973Z</time>
      </trkpt>
      <trkpt lat="60.995673816197986" lon="25.56596020236606">
        <ele>168.01620483398438</ele>
        <time>2020-10-30T13:10:51.115Z</time>
      </trkpt>
      <trkpt lat="60.99573005876829" lon="25.56516526266933">
        <ele>168.1992950439453</ele>
        <time>2020-10-30T13:10:51.264Z</time>
      </trkpt>
      <trkpt lat="60.99567230745545" lon="25.564765278249986">
        <ele>168.15721130371094</ele>
        <time>2020-10-30T13:10:51.418Z</time>
      </trkpt>
      <trkpt lat="60.995596199774646" lon="25.56463192217048">
        <ele>168.05450439453125</ele>
        <time>2020-10-30T13:10:51.574Z</time>
      </trkpt>
      <trkpt lat="60.995412468457125" lon="25.564444418996526">
        <ele>167.79042053222656</ele>
        <time>2020-10-30T13:10:51.734Z</time>
      </trkpt>
      <trkpt lat="60.99542093417932" lon="25.56431257165969">
        <ele>167.81944274902344</ele>
        <time>2020-10-30T13:10:51.895Z</time>
      </trkpt>
      <trkpt lat="60.995297217288524" lon="25.56400051340461">
        <ele>167.66392517089844</ele>
        <time>2020-10-30T13:10:52.060Z</time>
      </trkpt>
      <trkpt lat="60.995416072675496" lon="25.56362944655119">
        <ele>167.89382934570312</ele>
        <time>2020-10-30T13:10:52.229Z</time>
      </trkpt>
      <trkpt lat="60.99540953479101" lon="25.563446218147824">
        <ele>167.90560913085938</ele>
        <time>2020-10-30T13:10:52.400Z</time>
      </trkpt>
      <trkpt lat="60.99564808375526" lon="25.56293047964568">
        <ele>168.3395538330078</ele>
        <time>2020-10-30T13:10:52.578Z</time>
      </trkpt>
      <trkpt lat="60.99563425361505" lon="25.5628513544798">
        <ele>168.32748413085938</ele>
        <time>2020-10-30T13:10:52.757Z</time>
      </trkpt>
      <trkpt lat="60.995601396554605" lon="25.562301082536575">
        <ele>168.34225463867188</ele>
        <time>2020-10-30T13:10:52.941Z</time>
      </trkpt>
      <trkpt lat="60.99575260608783" lon="25.561928926035705">
        <ele>168.62274169921875</ele>
        <time>2020-10-30T13:10:53.130Z</time>
      </trkpt>
      <trkpt lat="60.99583642511955" lon="25.561591805890156">
        <ele>168.79393005371094</ele>
        <time>2020-10-30T13:10:53.323Z</time>
      </trkpt>
      <trkpt lat="60.99572855002571" lon="25.56113289669155">
        <ele>168.68072509765625</ele>
        <time>2020-10-30T13:10:53.521Z</time>
      </trkpt>
      <trkpt lat="60.995536269166976" lon="25.560987973585704">
        <ele>168.39820861816406</ele>
        <time>2020-10-30T13:10:53.723Z</time>
      </trkpt>
      <trkpt lat="60.99537324115026" lon="25.560785131528924">
        <ele>168.1682586669922</ele>
        <time>2020-10-30T13:10:53.928Z</time>
      </trkpt>
      <trkpt lat="60.99536469160905" lon="25.560304764658206">
        <ele>168.21255493164062</ele>
        <time>2020-10-30T13:10:54.138Z</time>
      </trkpt>
      <trkpt lat="60.995350358554624" lon="25.560172414407106">
        <ele>168.20608520507812</ele>
        <time>2020-10-30T13:10:54.349Z</time>
      </trkpt>
      <trkpt lat="60.99535865663876" lon="25.559780057519674">
        <ele>168.26609802246094</ele>
        <time>2020-10-30T13:10:54.564Z</time>
      </trkpt>
      <trkpt lat="60.995147600316905" lon="25.559661118313684">
        <ele>167.94679260253906</ele>
        <time>2020-10-30T13:10:54.784Z</time>
      </trkpt>
      <trkpt lat="60.99481626368454" lon="25.559261804446553">
        <ele>167.06761169433594</ele>
        <time>2020-10-30T13:10:55.011Z</time>
      </trkpt>
      <trkpt lat="60.994283509918944" lon="25.5589836090803">
        <ele>165.74166870117188</ele>
        <time>2020-10-30T13:10:55.249Z</time>
      </trkpt>
      <trkpt lat="60.993982012861835" lon="25.559038594365102">
        <ele>165.27163696289062</ele>
        <time>2020-10-30T13:10:55.493Z</time>
      </trkpt>
      <trkpt lat="60.99353332958509" lon="25.559263061732008">
        <ele>164.7603759765625</ele>
        <time>2020-10-30T13:10:55.747Z</time>
      </trkpt>
      <trkpt lat="60.99283981091666" lon="25.55913607589898">
        <ele>163.34466552734375</ele>
        <time>2020-10-30T13:10:56.015Z</time>
      </trkpt>
      <trkpt lat="60.992611068779105" lon="25.559188546612866">
        <ele>163.0022430419922</ele>
        <time>2020-10-30T13:10:56.287Z</time>
      </trkpt>
      <trkpt lat="60.99238769105957" lon="25.559651898220178">
        <ele>162.98089599609375</ele>
        <time>2020-10-30T13:10:56.566Z</time>
      </trkpt>
      <trkpt lat="60.99228870078313" lon="25.559607725590435">
        <ele>162.80804443359375</ele>
        <time>2020-10-30T13:10:56.847Z</time>
      </trkpt>
      <trkpt lat="60.992179065489644" lon="25.559488534927315">
        <ele>162.62066650390625</ele>
        <time>2020-10-30T13:10:57.130Z</time>
      </trkpt>
      <trkpt lat="60.99217876598101" lon="25.559489721716435">
        <ele>162.6217041015625</ele>
        <time>2020-10-30T13:10:57.413Z</time>
      </trkpt>
      <trkpt lat="60.99232885009932" lon="25.55889501236379">
        <ele>162.10694885253906</ele>
        <time>2020-10-30T13:10:57.703Z</time>
      </trkpt>
      <trkpt lat="60.99214495114372" lon="25.558659061789516">
        <ele>161.464599609375</ele>
        <time>2020-10-30T13:10:57.997Z</time>
      </trkpt>
      <trkpt lat="60.992057863169784" lon="25.558652020990856">
        <ele>161.29856872558594</ele>
        <time>2020-10-30T13:10:58.293Z</time>
      </trkpt>
      <trkpt lat="60.99201595365392" lon="25.55843216367065">
        <ele>160.93299865722656</ele>
        <time>2020-10-30T13:10:58.591Z</time>
      </trkpt>
      <trkpt lat="60.99205551623688" lon="25.558291599154437">
        <ele>160.81869506835938</ele>
        <time>2020-10-30T13:10:58.891Z</time>
      </trkpt>
      <trkpt lat="60.99218183151767" lon="25.558242816478018">
        <ele>160.9816436767578</ele>
        <time>2020-10-30T13:10:59.193Z</time>
      </trkpt>
      <trkpt lat="60.992508809560405" lon="25.557952886447282">
        <ele>161.18748474121094</ele>
        <time>2020-10-30T13:10:59.502Z</time>
      </trkpt>
      <trkpt lat="60.992481987470256" lon="25.55746329948304">
        <ele>160.4930877685547</ele>
        <time>2020-10-30T13:10:59.816Z</time>
      </trkpt>
      <trkpt lat="60.99243404298413" lon="25.55724092759191">
        <ele>160.1133270263672</ele>
        <time>2020-10-30T13:11:00.133Z</time>
      </trkpt>
      <trkpt lat="60.99255817897009" lon="25.556844379752874">
        <ele>159.79922485351562</ele>
        <time>2020-10-30T13:11:00.454Z</time>
      </trkpt>
      <trkpt lat="60.99261081732201" lon="25.55664639919997">
        <ele>159.54248046875</ele>
        <time>2020-10-30T13:11:00.777Z</time>
      </trkpt>
      <trkpt lat="60.99259556225823" lon="25.55636870674788">
        <ele>159.05409240722656</ele>
        <time>2020-10-30T13:11:01.103Z</time>
      </trkpt>
      <trkpt lat="60.99248693279312" lon="25.55625236593182">
        <ele>158.7022705078125</ele>
        <time>2020-10-30T13:11:01.432Z</time>
      </trkpt>
      <trkpt lat="60.992363718816506" lon="25.556161422282408">
        <ele>158.3721160888672</ele>
        <time>2020-10-30T13:11:01.763Z</time>
      </trkpt>
      <trkpt lat="60.992319881462926" lon="25.556062432005973">
        <ele>158.14273071289062</ele>
        <time>2020-10-30T13:11:02.096Z</time>
      </trkpt>
      <trkpt lat="60.99217965222285" lon="25.555833354592266">
        <ele>157.5560760498047</ele>
        <time>2020-10-30T13:11:02.432Z</time>
      </trkpt>
      <trkpt lat="60.99213849707829" lon="25.55572095327079">
        <ele>157.3080291748047</ele>
        <time>2020-10-30T13:11:02.769Z</time>
      </trkpt>
      <trkpt lat="60.99215190812336" lon="25.55529674515127">
        <ele>156.61480712890625</ele>
        <time>2020-10-30T13:11:03.111Z</time>
      </trkpt>
      <trkpt lat="60.992135060497986" lon="25.55492827668784">
        <ele>155.97164916992188</ele>
        <time>2020-10-30T13:11:03.456Z</time>
      </trkpt>
      <trkpt lat="60.9920581984459" lon="25.55464253760875">
        <ele>155.38104248046875</ele>
        <time>2020-10-30T13:11:03.804Z</time>
      </trkpt>
      <trkpt lat="60.99197940855609" lon="25.554544134065477">
        <ele>155.10232543945312</ele>
        <time>2020-10-30T13:11:04.154Z</time>
      </trkpt>
      <trkpt lat="60.99197186484325" lon="25.554215563461142">
        <ele>154.53958129882812</ele>
        <time>2020-10-30T13:11:04.507Z</time>
      </trkpt>
      <trkpt lat="60.991851584532725" lon="25.553947929292903">
        <ele>153.9168701171875</ele>
        <time>2020-10-30T13:11:04.864Z</time>
      </trkpt>
      <trkpt lat="60.9918520874469" lon="25.55361265316601">
        <ele>153.35446166992188</ele>
        <time>2020-10-30T13:11:05.224Z</time>
      </trkpt>
      <trkpt lat="60.99176189816878" lon="25.55342615582045">
        <ele>152.91134643554688</ele>
        <time>2020-10-30T13:11:05.587Z</time>
      </trkpt>
      <trkpt lat="60.991681599536406" lon="25.55309389717872">
        <ele>152.2376708984375</ele>
        <time>2020-10-30T13:11:05.953Z</time>
      </trkpt>
      <trkpt lat="60.99162418349968" lon="25.552937155589408">
        <ele>151.8917236328125</ele>
        <time>2020-10-30T13:11:06.321Z</time>
      </trkpt>
      <trkpt lat="60.9914191621481" lon="25.552521329373125">
        <ele>150.89810180664062</ele>
        <time>2020-10-30T13:11:06.695Z</time>
      </trkpt>
      <trkpt lat="60.991188743629905" lon="25.55230826139447">
        <ele>150.20848083496094</ele>
        <time>2020-10-30T13:11:07.074Z</time>
      </trkpt>
      <trkpt lat="60.99104030012474" lon="25.55228194221853">
        <ele>149.95054626464844</ele>
        <time>2020-10-30T13:11:07.456Z</time>
      </trkpt>
      <trkpt lat="60.990844331228615" lon="25.552402725443226">
        <ele>149.87127685546875</ele>
        <time>2020-10-30T13:11:07.842Z</time>
      </trkpt>
      <trkpt lat="60.99065045780825" lon="25.552428625524048">
        <ele>149.63565063476562</ele>
        <time>2020-10-30T13:11:08.232Z</time>
      </trkpt>
      <trkpt lat="60.990585665696734" lon="25.552418315783104">
        <ele>149.52503967285156</ele>
        <time>2020-10-30T13:11:08.623Z</time>
      </trkpt>
      <trkpt lat="60.990459098958816" lon="25.55243248119948">
        <ele>149.36660766601562</ele>
        <time>2020-10-30T13:11:09.017Z</time>
      </trkpt>
      <trkpt lat="60.99037427409873" lon="25.552248833701004">
        <ele>148.93601989746094</ele>
        <time>2020-10-30T13:11:09.413Z</time>
      </trkpt>
      <trkpt lat="60.99029833405598" lon="25.552169289439878">
        <ele>148.6930694580078</ele>
        <time>2020-10-30T13:11:09.811Z</time>
      </trkpt>
      <trkpt lat="60.990240331286024" lon="25.552022857591474">
        <ele>148.36361694335938</ele>
        <time>2020-10-30T13:11:10.211Z</time>
      </trkpt>
      <trkpt lat="60.990203450912084" lon="25.55200014263388">
        <ele>148.27235412597656</ele>
        <time>2020-10-30T13:11:10.612Z</time>
      </trkpt>
      <trkpt lat="60.990123655193884" lon="25.551834013313062">
        <ele>147.87843322753906</ele>
        <time>2020-10-30T13:11:11.015Z</time>
      </trkpt>
      <trkpt lat="60.990014941909756" lon="25.551692442968466">
        <ele>147.484130859375</ele>
        <time>2020-10-30T13:11:11.421Z</time>
      </trkpt>
      <trkpt lat="60.99001066713913" lon="25.55145230144258">
        <ele>147.07461547851562</ele>
        <time>2020-10-30T13:11:11.829Z</time>
      </trkpt>
      <trkpt lat="60.990131450363826" lon="25.55096095427868">
        <ele>146.6343536376953</ele>
        <time>2020-10-30T13:11:12.242Z</time>
      </trkpt>
      <trkpt lat="60.99010152696952" lon="25.550500368699414">
        <ele>146.3149871826172</ele>
        <time>2020-10-30T13:11:12.660Z</time>
      </trkpt>
      <trkpt lat="60.98997604987904" lon="25.55027087219057">
        <ele>145.9966583251953</ele>
        <time>2020-10-30T13:11:13.081Z</time>
      </trkpt>
      <trkpt lat="60.98989851727469" lon="25.54996392689646">
        <ele>145.70089721679688</ele>
        <time>2020-10-30T13:11:13.506Z</time>
      </trkpt>
      <trkpt lat="60.98999641790373" lon="25.549675589427316">
        <ele>145.66888427734375</ele>
        <time>2020-10-30T13:11:13.934Z</time>
      </trkpt>
      <trkpt lat="60.99007629744098" lon="25.549533851444707">
        <ele>145.69886779785156</ele>
        <time>2020-10-30T13:11:14.364Z</time>
      </trkpt>
      <trkpt lat="60.990189117857646" lon="25.549472831189586">
        <ele>145.82469177246094</ele>
        <time>2020-10-30T13:11:14.797Z</time>
      </trkpt>
      <trkpt lat="60.99024351640924" lon="25.549135711044077">
        <ele>145.70079040527344</ele>
        <time>2020-10-30T13:11:15.233Z</time>
      </trkpt>
      <trkpt lat="60.990510899120395" lon="25.548803620040417">
        <ele>145.8865509033203</ele>
        <time>2020-10-30T13:11:15.675Z</time>
      </trkpt>
      <trkpt lat="60.99080217025564" lon="25.54840740747746">
        <ele>146.06822204589844</ele>
        <time>2020-10-30T13:11:16.124Z</time>
      </trkpt>
      <trkpt lat="60.99098958961056" lon="25.548217305913546">
        <ele>146.22402954101562</ele>
        <time>2020-10-30T13:11:16.577Z</time>
      </trkpt>
      <trkpt lat="60.99103409751639" lon="25.54809501394626">
        <ele>146.21475219726562</ele>
        <time>2020-10-30T13:11:17.032Z</time>
      </trkpt>
      <trkpt lat="60.99109486631438" lon="25.54700536653399">
        <ele>145.6773681640625</ele>
        <time>2020-10-30T13:11:17.498Z</time>
      </trkpt>
      <trkpt lat="60.99128806918249" lon="25.546878296881918">
        <ele>145.9945831298828</ele>
        <time>2020-10-30T13:11:17.968Z</time>
      </trkpt>
      <trkpt lat="60.99141798868165" lon="25.5465447809547">
        <ele>146.14837646484375</ele>
        <time>2020-10-30T13:11:18.442Z</time>
      </trkpt>
      <trkpt lat="60.991452354484665" lon="25.5463785678148">
        <ele>146.1703338623047</ele>
        <time>2020-10-30T13:11:18.918Z</time>
      </trkpt>
      <trkpt lat="60.99171780935809" lon="25.546092493459575">
        <ele>146.57943725585938</ele>
        <time>2020-10-30T13:11:19.400Z</time>
      </trkpt>
      <trkpt lat="60.991911850416514" lon="25.54580641910431">
        <ele>146.86000061035156</ele>
        <time>2020-10-30T13:11:19.886Z</time>
      </trkpt>
      <trkpt lat="60.99200530863689" lon="25.54574263282121">
        <ele>147.0128936767578</ele>
        <time>2020-10-30T13:11:20.374Z</time>
      </trkpt>
      <trkpt lat="60.992225752690295" lon="25.545352539047606">
        <ele>147.31602478027344</ele>
        <time>2020-10-30T13:11:20.868Z</time>
      </trkpt>
      <trkpt lat="60.99234980485725" lon="25.545189930126078">
        <ele>147.50027465820312</ele>
        <time>2020-10-30T13:11:21.365Z</time>
      </trkpt>
      <trkpt lat="60.99240529305625" lon="25.545010808855295">
        <ele>147.55714416503906</ele>
        <time>2020-10-30T13:11:21.864Z</time>
      </trkpt>
      <trkpt lat="60.99227654702353" lon="25.544699253514363">
        <ele>147.2506866455078</ele>
        <time>2020-10-30T13:11:22.367Z</time>
      </trkpt>
      <trkpt lat="60.99216481625425" lon="25.544507140293693">
        <ele>147.00350952148438</ele>
        <time>2020-10-30T13:11:22.873Z</time>
      </trkpt>
      <trkpt lat="60.99220161280915" lon="25.544360373169134">
        <ele>147.03451538085938</ele>
        <time>2020-10-30T13:11:23.381Z</time>
      </trkpt>
      <trkpt lat="60.99227394863355" lon="25.54428820498288">
        <ele>147.1473846435547</ele>
        <time>2020-10-30T13:11:23.890Z</time>
      </trkpt>
      <trkpt lat="60.99237696222352" lon="25.54437940008939">
        <ele>147.3546600341797</ele>
        <time>2020-10-30T13:11:24.402Z</time>
      </trkpt>
      <trkpt lat="60.992533871450874" lon="25.54447503760452">
        <ele>147.6599884033203</ele>
        <time>2020-10-30T13:11:24.917Z</time>
      </trkpt>
      <trkpt lat="60.992868141749376" lon="25.544507475569816">
        <ele>148.2693634033203</ele>
        <time>2020-10-30T13:11:25.439Z</time>
      </trkpt>
      <trkpt lat="60.993244153925644" lon="25.544366408139414">
        <ele>148.91221618652344</ele>
        <time>2020-10-30T13:11:25.968Z</time>
      </trkpt>
      <trkpt lat="60.993443391764046" lon="25.544265490025293">
        <ele>149.24658203125</ele>
        <time>2020-10-30T13:11:26.501Z</time>
      </trkpt>
      <trkpt lat="60.99362838036704" lon="25.544537147507057">
        <ele>149.64468383789062</ele>
        <time>2020-10-30T13:11:27.039Z</time>
      </trkpt>
      <trkpt lat="60.99369300484048" lon="25.544522227719376">
        <ele>149.75741577148438</ele>
        <time>2020-10-30T13:11:27.578Z</time>
      </trkpt>
      <trkpt lat="60.99372343114901" lon="25.5446352995932">
        <ele>149.83929443359375</ele>
        <time>2020-10-30T13:11:28.119Z</time>
      </trkpt>
      <trkpt lat="60.99382736674834" lon="25.54486563429231">
        <ele>150.0816192626953</ele>
        <time>2020-10-30T13:11:28.663Z</time>
      </trkpt>
      <trkpt lat="60.994052001753325" lon="25.54500938393173">
        <ele>150.5203857421875</ele>
        <time>2020-10-30T13:11:29.211Z</time>
      </trkpt>
      <trkpt lat="60.99410195789622" lon="25.545235276222197">
        <ele>150.6645050048828</ele>
        <time>2020-10-30T13:11:29.762Z</time>
      </trkpt>
      <trkpt lat="60.99473982072759" lon="25.546306567266544">
        <ele>152.06951904296875</ele>
        <time>2020-10-30T13:11:30.329Z</time>
      </trkpt>
      <trkpt lat="60.99483453623344" lon="25.546372784301614">
        <ele>152.255859375</ele>
        <time>2020-10-30T13:11:30.898Z</time>
      </trkpt>
      <trkpt lat="60.99493620871891" lon="25.54667268879708">
        <ele>152.51080322265625</ele>
        <time>2020-10-30T13:11:31.471Z</time>
      </trkpt>
      <trkpt lat="60.99546016148616" lon="25.54715263657272">
        <ele>153.3923797607422</ele>
        <time>2020-10-30T13:11:32.055Z</time>
      </trkpt>
      <trkpt lat="60.99545978967629" lon="25.547152510384194">
        <ele>153.39190673828125</ele>
        <time>2020-10-30T13:11:32.639Z</time>
      </trkpt>
      <trkpt lat="60.99581974513222" lon="25.547274677082868">
        <ele>153.85308837890625</ele>
        <time>2020-10-30T13:11:33.231Z</time>
      </trkpt>
      <trkpt lat="60.99638636178664" lon="25.54756267927585">
        <ele>154.60202026367188</ele>
        <time>2020-10-30T13:11:33.834Z</time>
      </trkpt>
      <trkpt lat="60.99667344197026" lon="25.54739051498472">
        <ele>154.9051513671875</ele>
        <time>2020-10-30T13:11:34.443Z</time>
      </trkpt>
      <trkpt lat="60.99679917051783" lon="25.54736788384611">
        <ele>155.05056762695312</ele>
        <time>2020-10-30T13:11:35.055Z</time>
      </trkpt>
      <trkpt lat="60.997078204074406" lon="25.54763845168053">
        <ele>155.4502716064453</ele>
        <time>2020-10-30T13:11:35.673Z</time>
      </trkpt>
      <trkpt lat="60.99724869198493" lon="25.547530911862843">
        <ele>155.6290283203125</ele>
        <time>2020-10-30T13:11:36.295Z</time>
      </trkpt>
      <trkpt lat="60.997491012805625" lon="25.547443572431778">
        <ele>155.8988037109375</ele>
        <time>2020-10-30T13:11:36.922Z</time>
      </trkpt>
      <trkpt lat="60.997742805176884" lon="25.547566870227435">
        <ele>156.23048400878906</ele>
        <time>2020-10-30T13:11:37.554Z</time>
      </trkpt>
      <trkpt lat="60.99805788091714" lon="25.547837018966685">
        <ele>156.67333984375</ele>
        <time>2020-10-30T13:11:38.193Z</time>
      </trkpt>
      <trkpt lat="60.99833557336918" lon="25.547496294602766">
        <ele>156.9247589111328</ele>
        <time>2020-10-30T13:11:38.838Z</time>
      </trkpt>
      <trkpt lat="60.998550988280705" lon="25.547409290447817">
        <ele>157.16233825683594</ele>
        <time>2020-10-30T13:11:39.487Z</time>
      </trkpt>
      <trkpt lat="60.99867730356151" lon="25.54763962514697">
        <ele>157.36915588378906</ele>
        <time>2020-10-30T13:11:40.140Z</time>
      </trkpt>
      <trkpt lat="60.998893137568174" lon="25.547763425856775">
        <ele>157.65782165527344</ele>
        <time>2020-10-30T13:11:40.797Z</time>
      </trkpt>
      <trkpt lat="60.99902783475214" lon="25.547719588503185">
        <ele>157.8089141845703</ele>
        <time>2020-10-30T13:11:41.457Z</time>
      </trkpt>
      <trkpt lat="60.999288092845624" lon="25.547729143872857">
        <ele>158.1234588623047</ele>
        <time>2020-10-30T13:11:42.122Z</time>
      </trkpt>
      <trkpt lat="60.999581794732734" lon="25.548256868496544">
        <ele>158.60247802734375</ele>
        <time>2020-10-30T13:11:42.795Z</time>
      </trkpt>
      <trkpt lat="60.99963912695045" lon="25.54833230562504">
        <ele>158.68936157226562</ele>
        <time>2020-10-30T13:11:43.469Z</time>
      </trkpt>
      <trkpt lat="60.9996662004977" lon="25.54828670807184">
        <ele>158.71090698242188</ele>
        <time>2020-10-30T13:11:44.144Z</time>
      </trkpt>
      <trkpt lat="60.99968801647634" lon="25.54826987977452">
        <ele>158.7330322265625</ele>
        <time>2020-10-30T13:11:44.820Z</time>
      </trkpt>
      <trkpt lat="60.99973068320668" lon="25.5482985706322">
        <ele>158.79112243652344</ele>
        <time>2020-10-30T13:11:45.497Z</time>
      </trkpt>
      <trkpt lat="60.999730679411435" lon="25.54829923078546">
        <ele>158.79127502441406</ele>
        <time>2020-10-30T13:11:46.174Z</time>
      </trkpt>
      <trkpt lat="60.999730070599874" lon="25.548378070816373">
        <ele>158.80946350097656</ele>
        <time>2020-10-30T13:11:46.851Z</time>
      </trkpt>
      <trkpt lat="60.99978891156011" lon="25.5485286097973">
        <ele>158.9161834716797</ele>
        <time>2020-10-30T13:11:47.530Z</time>
      </trkpt>
      <trkpt lat="61.00008135616178" lon="25.54880403913558">
        <ele>159.33314514160156</ele>
        <time>2020-10-30T13:11:48.216Z</time>
      </trkpt>
      <trkpt lat="61.00019283547396" lon="25.548946447670463">
        <ele>159.50106811523438</ele>
        <time>2020-10-30T13:11:48.904Z</time>
      </trkpt>
      <trkpt lat="61.000305907347744" lon="25.54906228557229">
        <ele>159.66452026367188</ele>
        <time>2020-10-30T13:11:49.595Z</time>
      </trkpt>
      <trkpt lat="61.00071494422251" lon="25.54906949400899">
        <ele>160.15701293945312</ele>
        <time>2020-10-30T13:11:50.294Z</time>
      </trkpt>
      <trkpt lat="61.00093840576108" lon="25.549211567267726">
        <ele>160.45921325683594</ele>
        <time>2020-10-30T13:11:50.998Z</time>
      </trkpt>
      <trkpt lat="61.001105121815144" lon="25.549101093783932">
        <ele>160.6327362060547</ele>
        <time>2020-10-30T13:11:51.705Z</time>
      </trkpt>
      <trkpt lat="61.001126830944386" lon="25.549072092399">
        <ele>160.65182495117188</ele>
        <time>2020-10-30T13:11:52.413Z</time>
      </trkpt>
      <trkpt lat="61.00121207489963" lon="25.549048455431997">
        <ele>160.74842834472656</ele>
        <time>2020-10-30T13:11:53.122Z</time>
      </trkpt>
      <trkpt lat="61.00128726057109" lon="25.548946196213333">
        <ele>160.81410217285156</ele>
        <time>2020-10-30T13:11:53.833Z</time>
      </trkpt>
      <trkpt lat="61.00139161526558" lon="25.548927253112144">
        <ele>160.86265563964844</ele>
        <time>2020-10-30T13:11:54.546Z</time>
      </trkpt>
      <trkpt lat="61.001455569186774" lon="25.54888224229213">
        <ele>160.86322021484375</ele>
        <time>2020-10-30T13:11:55.261Z</time>
      </trkpt>
      <trkpt lat="61.001534442895604" lon="25.548862293362568">
        <ele>160.89378356933594</ele>
        <time>2020-10-30T13:11:55.977Z</time>
      </trkpt>
      <trkpt lat="61.00156947925088" lon="25.548829436302153">
        <ele>160.88720703125</ele>
        <time>2020-10-30T13:11:56.694Z</time>
      </trkpt>
      <trkpt lat="61.00160887419579" lon="25.548823568969944">
        <ele>160.90591430664062</ele>
        <time>2020-10-30T13:11:57.412Z</time>
      </trkpt>
      <trkpt lat="61.0017447448462" lon="25.548905627801982">
        <ele>161.05633544921875</ele>
        <time>2020-10-30T13:11:58.133Z</time>
      </trkpt>
      <trkpt lat="61.00186234294769" lon="25.548954159021324">
        <ele>161.1676483154297</ele>
        <time>2020-10-30T13:11:58.856Z</time>
      </trkpt>
      <trkpt lat="61.00191355637606" lon="25.548996739089493">
        <ele>161.234130859375</ele>
        <time>2020-10-30T13:11:59.580Z</time>
      </trkpt>
      <trkpt lat="61.001972564974395" lon="25.548990704119202">
        <ele>161.26446533203125</ele>
        <time>2020-10-30T13:12:00.305Z</time>
      </trkpt>
      <trkpt lat="61.00206887304181" lon="25.549122802913132">
        <ele>161.4331817626953</ele>
        <time>2020-10-30T13:12:01.033Z</time>
      </trkpt>
      <trkpt lat="61.002125367069205" lon="25.549160856753552">
        <ele>161.4990234375</ele>
        <time>2020-10-30T13:12:01.762Z</time>
      </trkpt>
      <trkpt lat="61.00229149639006" lon="25.549212656915152">
        <ele>161.64218139648438</ele>
        <time>2020-10-30T13:12:02.494Z</time>
      </trkpt>
      <trkpt lat="61.00260238117872" lon="25.54914325475688">
        <ele>161.77040100097656</ele>
        <time>2020-10-30T13:12:03.233Z</time>
      </trkpt>
      <trkpt lat="61.00271754852828" lon="25.54905901663004">
        <ele>161.7687530517578</ele>
        <time>2020-10-30T13:12:03.974Z</time>
      </trkpt>
      <trkpt lat="61.00302700839339" lon="25.548901101574284">
        <ele>161.82177734375</ele>
        <time>2020-10-30T13:12:04.721Z</time>
      </trkpt>
      <trkpt lat="61.003224150755976" lon="25.548820216208654">
        <ele>161.87210083007812</ele>
        <time>2020-10-30T13:12:05.472Z</time>
      </trkpt>
      <trkpt lat="61.003445432999726" lon="25.549002019688444">
        <ele>162.15753173828125</ele>
        <time>2020-10-30T13:12:06.228Z</time>
      </trkpt>
      <trkpt lat="61.003684987792354" lon="25.54924651980398">
        <ele>162.08621215820312</ele>
        <time>2020-10-30T13:12:06.990Z</time>
      </trkpt>
      <trkpt lat="61.00395907602607" lon="25.54924727417528">
        <ele>161.62644958496094</ele>
        <time>2020-10-30T13:12:07.757Z</time>
      </trkpt>
      <trkpt lat="61.00413953840136" lon="25.54936730302869">
        <ele>161.42413330078125</ele>
        <time>2020-10-30T13:12:08.528Z</time>
      </trkpt>
      <trkpt lat="61.0042160651773" lon="25.549396220594637">
        <ele>161.3198699951172</ele>
        <time>2020-10-30T13:12:09.300Z</time>
      </trkpt>
      <trkpt lat="61.00438663690685" lon="25.549379540607323">
        <ele>161.01934814453125</ele>
        <time>2020-10-30T13:12:10.076Z</time>
      </trkpt>
      <trkpt lat="61.004558549740906" lon="25.549724204465722">
        <ele>161.02005004882812</ele>
        <time>2020-10-30T13:12:10.857Z</time>
      </trkpt>
      <trkpt lat="61.004675644928206" lon="25.549905085936185">
        <ele>160.9752655029297</ele>
        <time>2020-10-30T13:12:11.641Z</time>
      </trkpt>
      <trkpt lat="61.00473456970751" lon="25.55008496157826">
        <ele>161.02735900878906</ele>
        <time>2020-10-30T13:12:12.427Z</time>
      </trkpt>
      <trkpt lat="61.00480204402804" lon="25.550347063690396">
        <ele>161.13414001464844</ele>
        <time>2020-10-30T13:12:13.216Z</time>
      </trkpt>
      <trkpt lat="61.00481704763471" lon="25.55048553273077">
        <ele>161.2252197265625</ele>
        <time>2020-10-30T13:12:14.006Z</time>
      </trkpt>
      <trkpt lat="61.00481042593122" lon="25.550843859091387">
        <ele>161.5372772216797</ele>
        <time>2020-10-30T13:12:14.800Z</time>
      </trkpt>
      <trkpt lat="61.004783771479126" lon="25.551085006445625">
        <ele>161.78457641601562</ele>
        <time>2020-10-30T13:12:15.596Z</time>
      </trkpt>
      <trkpt lat="61.00470372430383" lon="25.551160108298024">
        <ele>161.9833984375</ele>
        <time>2020-10-30T13:12:16.394Z</time>
      </trkpt>
      <trkpt lat="61.00463113702236" lon="25.55105734616513">
        <ele>162.01771545410156</ele>
        <time>2020-10-30T13:12:17.193Z</time>
      </trkpt>
      <trkpt lat="61.00449576928614" lon="25.55095676332709">
        <ele>162.16062927246094</ele>
        <time>2020-10-30T13:12:17.995Z</time>
      </trkpt>
      <trkpt lat="61.004190584191676" lon="25.551196904852965">
        <ele>162.8894805908203</ele>
        <time>2020-10-30T13:12:18.804Z</time>
      </trkpt>
      <trkpt lat="61.00366688288151" lon="25.55192587897179">
        <ele>165.2225799560547</ele>
        <time>2020-10-30T13:12:19.626Z</time>
      </trkpt>
      <trkpt lat="61.003609466844786" lon="25.55198480375107">
        <ele>165.50137329101562</ele>
        <time>2020-10-30T13:12:20.449Z</time>
      </trkpt>
      <trkpt lat="61.003555319750305" lon="25.5520971212536">
        <ele>165.88685607910156</ele>
        <time>2020-10-30T13:12:21.273Z</time>
      </trkpt>
      <trkpt lat="61.00335985376834" lon="25.55186552926898">
        <ele>165.3623504638672</ele>
        <time>2020-10-30T13:12:22.102Z</time>
      </trkpt>
      <trkpt lat="61.00330092898903" lon="25.551867205649614">
        <ele>165.29527282714844</ele>
        <time>2020-10-30T13:12:22.932Z</time>
      </trkpt>
      <trkpt lat="61.00313639222976" lon="25.551922358572472">
        <ele>165.21697998046875</ele>
        <time>2020-10-30T13:12:23.765Z</time>
      </trkpt>
      <trkpt lat="61.00304058707651" lon="25.55238964967426">
        <ele>166.1111602783203</ele>
        <time>2020-10-30T13:12:24.603Z</time>
      </trkpt>
      <trkpt lat="61.00309062703843" lon="25.55274671874935">
        <ele>166.9423065185547</ele>
        <time>2020-10-30T13:12:25.445Z</time>
      </trkpt>
      <trkpt lat="61.00306556514797" lon="25.553072523325636">
        <ele>167.61582946777344</ele>
        <time>2020-10-30T13:12:26.290Z</time>
      </trkpt>
      <trkpt lat="61.0031277588695" lon="25.553233623504628">
        <ele>168.03836059570312</ele>
        <time>2020-10-30T13:12:27.137Z</time>
      </trkpt>
      <trkpt lat="61.00320537529287" lon="25.553553728386717">
        <ele>168.82276916503906</ele>
        <time>2020-10-30T13:12:27.988Z</time>
      </trkpt>
      <trkpt lat="61.0032443511426" lon="25.554026635363652">
        <ele>169.8907928466797</ele>
        <time>2020-10-30T13:12:28.843Z</time>
      </trkpt>
      <trkpt lat="61.00331182546316" lon="25.55542616173626">
        <ele>172.9940948486328</ele>
        <time>2020-10-30T13:12:29.712Z</time>
      </trkpt>
      <trkpt lat="61.00344048767684" lon="25.555900325998646">
        <ele>174.1724395751953</ele>
        <time>2020-10-30T13:12:30.586Z</time>
      </trkpt>
      <trkpt lat="61.00356479130087" lon="25.556469708681064">
        <ele>175.30467224121094</ele>
        <time>2020-10-30T13:12:31.466Z</time>
      </trkpt>
      <trkpt lat="61.00354090287683" lon="25.556798782199557">
        <ele>176.07838439941406</ele>
        <time>2020-10-30T13:12:32.350Z</time>
      </trkpt>
      <trkpt lat="61.00349212020039" lon="25.556895425543157">
        <ele>176.38336181640625</ele>
        <time>2020-10-30T13:12:33.235Z</time>
      </trkpt>
      <trkpt lat="61.00346504665315" lon="25.557222571223967">
        <ele>177.057373046875</ele>
        <time>2020-10-30T13:12:34.123Z</time>
      </trkpt>
      <trkpt lat="61.003465122167285" lon="25.557221251876438">
        <ele>177.0546112060547</ele>
        <time>2020-10-30T13:12:35.011Z</time>
      </trkpt>
      <trkpt lat="61.003434787982705" lon="25.557751217856985">
        <ele>178.16270446777344</ele>
        <time>2020-10-30T13:12:35.904Z</time>
      </trkpt>
      <trkpt lat="61.00333613298235" lon="25.55846074596047">
        <ele>179.57659912109375</ele>
        <time>2020-10-30T13:12:36.805Z</time>
      </trkpt>
      <trkpt lat="61.00329732477066" lon="25.558704575523738">
        <ele>180.0565948486328</ele>
        <time>2020-10-30T13:12:37.708Z</time>
      </trkpt>
      <trkpt lat="61.00325365505515" lon="25.55889593437312">
        <ele>180.41744995117188</ele>
        <time>2020-10-30T13:12:38.613Z</time>
      </trkpt>
      <trkpt lat="61.0033196206331" lon="25.55937839671968">
        <ele>181.50595092773438</ele>
        <time>2020-10-30T13:12:39.523Z</time>
      </trkpt>
      <trkpt lat="61.00323010190722" lon="25.559423742815838">
        <ele>181.4317626953125</ele>
        <time>2020-10-30T13:12:40.435Z</time>
      </trkpt>
      <trkpt lat="61.00306036836801" lon="25.559566905721976">
        <ele>181.2424774169922</ele>
        <time>2020-10-30T13:12:41.351Z</time>
      </trkpt>
      <trkpt lat="61.00296196482476" lon="25.559633625671268">
        <ele>181.06118774414062</ele>
        <time>2020-10-30T13:12:42.269Z</time>
      </trkpt>
      <trkpt lat="61.0028227414131" lon="25.559638654813178">
        <ele>180.8261260986328</ele>
        <time>2020-10-30T13:12:43.190Z</time>
      </trkpt>
      <trkpt lat="61.00264110557136" lon="25.559694310650237">
        <ele>180.50767517089844</ele>
        <time>2020-10-30T13:12:44.114Z</time>
      </trkpt>
      <trkpt lat="61.00248201704915" lon="25.55977108888328">
        <ele>180.22201538085938</ele>
        <time>2020-10-30T13:12:45.041Z</time>
      </trkpt>
      <trkpt lat="61.0024112737864" lon="25.559927411377384">
        <ele>180.06568908691406</ele>
        <time>2020-10-30T13:12:45.971Z</time>
      </trkpt>
      <trkpt lat="61.00228512614366" lon="25.559858093038198">
        <ele>179.87042236328125</ele>
        <time>2020-10-30T13:12:46.903Z</time>
      </trkpt>
      <trkpt lat="61.00210575341578" lon="25.55991726927457">
        <ele>179.554931640625</ele>
        <time>2020-10-30T13:12:47.839Z</time>
      </trkpt>
      <trkpt lat="61.001896205836495" lon="25.56015665642914">
        <ele>179.1455078125</ele>
        <time>2020-10-30T13:12:48.780Z</time>
      </trkpt>
      <trkpt lat="61.00179335988459" lon="25.560234105214427">
        <ele>178.95416259765625</ele>
        <time>2020-10-30T13:12:49.723Z</time>
      </trkpt>
      <trkpt lat="61.0016509513497" lon="25.560428900644173">
        <ele>178.66822814941406</ele>
        <time>2020-10-30T13:12:50.669Z</time>
      </trkpt>
      <trkpt lat="61.00176217920478" lon="25.56094782426953">
        <ele>178.73052978515625</ele>
        <time>2020-10-30T13:12:51.621Z</time>
      </trkpt>
      <trkpt lat="61.001884638810125" lon="25.561134573072163">
        <ele>178.89141845703125</ele>
        <time>2020-10-30T13:12:52.576Z</time>
      </trkpt>
      <trkpt lat="61.00261352910992" lon="25.561353676021067">
        <ele>180.0631866455078</ele>
        <time>2020-10-30T13:12:53.546Z</time>
      </trkpt>
      <trkpt lat="61.00276633120474" lon="25.561358788982">
        <ele>180.31861877441406</ele>
        <time>2020-10-30T13:12:54.519Z</time>
      </trkpt>
      <trkpt lat="61.00301057986316" lon="25.561308665201054">
        <ele>180.7409210205078</ele>
        <time>2020-10-30T13:12:55.497Z</time>
      </trkpt>
      <trkpt lat="61.00315357513128" lon="25.561249321326617">
        <ele>180.99534606933594</ele>
        <time>2020-10-30T13:12:56.478Z</time>
      </trkpt>
      <trkpt lat="61.003504525417085" lon="25.56119978427884">
        <ele>181.59059143066406</ele>
        <time>2020-10-30T13:12:57.466Z</time>
      </trkpt>
      <trkpt lat="61.00358549460172" lon="25.561161143705217">
        <ele>181.6095733642578</ele>
        <time>2020-10-30T13:12:58.455Z</time>
      </trkpt>
      <trkpt lat="61.00386109157799" lon="25.561094842851112">
        <ele>181.65853881835938</ele>
        <time>2020-10-30T13:12:59.450Z</time>
      </trkpt>
      <trkpt lat="61.003968463757644" lon="25.561094507575028">
        <ele>181.6715087890625</ele>
        <time>2020-10-30T13:13:00.447Z</time>
      </trkpt>
      <trkpt lat="61.00409050426781" lon="25.561206154525262">
        <ele>181.65936279296875</ele>
        <time>2020-10-30T13:13:01.447Z</time>
      </trkpt>
      <trkpt lat="61.004199385190006" lon="25.561370858922604">
        <ele>181.63290405273438</ele>
        <time>2020-10-30T13:13:02.449Z</time>
      </trkpt>
      <trkpt lat="61.00418865635395" lon="25.561803448945255">
        <ele>181.52781677246094</ele>
        <time>2020-10-30T13:13:03.456Z</time>
      </trkpt>
      <trkpt lat="61.00419083564876" lon="25.562130091711875">
        <ele>181.44970703125</ele>
        <time>2020-10-30T13:13:04.466Z</time>
      </trkpt>
      <trkpt lat="61.00433953061103" lon="25.562272835522858">
        <ele>181.43328857421875</ele>
        <time>2020-10-30T13:13:05.479Z</time>
      </trkpt>
      <trkpt lat="61.0045308056414" lon="25.562510630115863">
        <ele>181.39918518066406</ele>
        <time>2020-10-30T13:13:06.497Z</time>
      </trkpt>
      <trkpt lat="61.00488183974624" lon="25.56270617991683">
        <ele>181.39437866210938</ele>
        <time>2020-10-30T13:13:07.522Z</time>
      </trkpt>
      <trkpt lat="61.00509867958129" lon="25.562888234853745">
        <ele>181.376708984375</ele>
        <time>2020-10-30T13:13:08.552Z</time>
      </trkpt>
      <trkpt lat="61.00517973258495" lon="25.562916900962552">
        <ele>181.37954711914062</ele>
        <time>2020-10-30T13:13:09.583Z</time>
      </trkpt>
      <trkpt lat="61.00543144113719" lon="25.56278320960695">
        <ele>181.44183349609375</ele>
        <time>2020-10-30T13:13:10.619Z</time>
      </trkpt>
      <trkpt lat="61.00568273059427" lon="25.562888402491794">
        <ele>181.44674682617188</ele>
        <time>2020-10-30T13:13:11.661Z</time>
      </trkpt>
      <trkpt lat="61.00602303586304" lon="25.563413780182586">
        <ele>181.36151123046875</ele>
        <time>2020-10-30T13:13:12.711Z</time>
      </trkpt>
      <trkpt lat="61.00610056846739" lon="25.56360078044233">
        <ele>181.32594299316406</ele>
        <time>2020-10-30T13:13:13.763Z</time>
      </trkpt>
      <trkpt lat="61.00617701142432" lon="25.56401174515481">
        <ele>181.2364959716797</ele>
        <time>2020-10-30T13:13:14.820Z</time>
      </trkpt>
      <trkpt lat="61.00650105580094" lon="25.56439806707204">
        <ele>181.18267822265625</ele>
        <time>2020-10-30T13:13:15.884Z</time>
      </trkpt>
      <trkpt lat="61.006598788791905" lon="25.56459856219585">
        <ele>181.14630126953125</ele>
        <time>2020-10-30T13:13:16.951Z</time>
      </trkpt>
      <trkpt lat="61.006729797938476" lon="25.564704174175816">
        <ele>181.1366729736328</ele>
        <time>2020-10-30T13:13:18.021Z</time>
      </trkpt>
      <trkpt lat="61.007011094608906" lon="25.564825879409913">
        <ele>181.14122009277344</ele>
        <time>2020-10-30T13:13:19.097Z</time>
      </trkpt>
      <trkpt lat="61.00714646234513" lon="25.56497960351405">
        <ele>181.12057495117188</ele>
        <time>2020-10-30T13:13:20.176Z</time>
      </trkpt>
      <trkpt lat="61.00721494249406" lon="25.56501975283023">
        <ele>181.11915588378906</ele>
        <time>2020-10-30T13:13:21.256Z</time>
      </trkpt>
      <trkpt lat="61.007370091521764" lon="25.56502008810634">
        <ele>181.1376953125</ele>
        <time>2020-10-30T13:13:22.339Z</time>
      </trkpt>
      <trkpt lat="61.00754787168805" lon="25.565077252686002">
        <ele>181.1453094482422</ele>
        <time>2020-10-30T13:13:23.426Z</time>
      </trkpt>
      <trkpt lat="61.00783361076715" lon="25.565387047827254">
        <ele>181.10525512695312</ele>
        <time>2020-10-30T13:13:24.519Z</time>
      </trkpt>
      <trkpt lat="61.00789513393644" lon="25.56540716439485">
        <ele>181.10780334472656</ele>
        <time>2020-10-30T13:13:25.614Z</time>
      </trkpt>
      <trkpt lat="61.00802069484594" lon="25.565491989254966">
        <ele>181.10252380371094</ele>
        <time>2020-10-30T13:13:26.711Z</time>
      </trkpt>
      <trkpt lat="61.00813024632039" lon="25.56553071364757">
        <ele>181.1063690185547</ele>
        <time>2020-10-30T13:13:27.810Z</time>
      </trkpt>
      <trkpt lat="61.00828388660553" lon="25.565662225708348">
        <ele>181.09324645996094</ele>
        <time>2020-10-30T13:13:28.913Z</time>
      </trkpt>
      <trkpt lat="61.00840550802056" lon="25.56572115048765">
        <ele>181.0937042236328</ele>
        <time>2020-10-30T13:13:30.018Z</time>
      </trkpt>
      <trkpt lat="61.0085592321247" lon="25.5658737849444">
        <ele>181.0755157470703</ele>
        <time>2020-10-30T13:13:31.127Z</time>
      </trkpt>
      <trkpt lat="61.008829799959116" lon="25.566717926412785">
        <ele>180.90542602539062</ele>
        <time>2020-10-30T13:13:32.246Z</time>
      </trkpt>
      <trkpt lat="61.00906725927594" lon="25.567159652709954">
        <ele>180.8279266357422</ele>
        <time>2020-10-30T13:13:33.371Z</time>
      </trkpt>
      <trkpt lat="61.00935098669832" lon="25.567426532506925">
        <ele>180.7979278564453</ele>
        <time>2020-10-30T13:13:34.502Z</time>
      </trkpt>
      <trkpt lat="61.00945693395441" lon="25.567833893001072">
        <ele>180.6998291015625</ele>
        <time>2020-10-30T13:13:35.638Z</time>
      </trkpt>
      <trkpt lat="61.00949465251866" lon="25.568106556311236">
        <ele>180.1482391357422</ele>
        <time>2020-10-30T13:13:36.776Z</time>
      </trkpt>
      <trkpt lat="61.00924981712702" lon="25.568452645093178">
        <ele>179.41299438476562</ele>
        <time>2020-10-30T13:13:37.920Z</time>
      </trkpt>
      <trkpt lat="61.009183683911004" lon="25.568644758313894">
        <ele>179.0132293701172</ele>
        <time>2020-10-30T13:13:39.067Z</time>
      </trkpt>
      <trkpt lat="61.009089219862275" lon="25.569322686642387">
        <ele>177.61920166015625</ele>
        <time>2020-10-30T13:13:40.221Z</time>
      </trkpt>
      <trkpt lat="61.00894622459415" lon="25.56932712905108">
        <ele>177.59298706054688</ele>
        <time>2020-10-30T13:13:41.377Z</time>
      </trkpt>
      <trkpt lat="61.00884949743156" lon="25.56939351372418">
        <ele>177.44598388671875</ele>
        <time>2020-10-30T13:13:42.536Z</time>
      </trkpt>
      <trkpt lat="61.00878453768199" lon="25.569404326379296">
        <ele>177.4161376953125</ele>
        <time>2020-10-30T13:13:43.696Z</time>
      </trkpt>
      <trkpt lat="61.00874874695541" lon="25.56944908574221">
        <ele>177.320556640625</ele>
        <time>2020-10-30T13:13:44.857Z</time>
      </trkpt>
      <trkpt lat="61.00855705282989" lon="25.569554027169918">
        <ele>177.08352661132812</ele>
        <time>2020-10-30T13:13:46.022Z</time>
      </trkpt>
      <trkpt lat="61.00842034398919" lon="25.569661734625686">
        <ele>176.84744262695312</ele>
        <time>2020-10-30T13:13:47.190Z</time>
      </trkpt>
      <trkpt lat="61.00825245446864" lon="25.56984462775291">
        <ele>176.4542694091797</ele>
        <time>2020-10-30T13:13:48.361Z</time>
      </trkpt>
      <trkpt lat="61.0081762629688" lon="25.56991059333087">
        <ele>176.3105926513672</ele>
        <time>2020-10-30T13:13:49.534Z</time>
      </trkpt>
      <trkpt lat="61.00798683195714" lon="25.570001285523148">
        <ele>176.10289001464844</ele>
        <time>2020-10-30T13:13:50.711Z</time>
      </trkpt>
      <trkpt lat="61.007726573863664" lon="25.570352151989923">
        <ele>175.35604858398438</ele>
        <time>2020-10-30T13:13:51.894Z</time>
      </trkpt>
      <trkpt lat="61.00773177064362" lon="25.57036179117853">
        <ele>175.33700561523438</ele>
        <time>2020-10-30T13:13:53.077Z</time>
      </trkpt>
      <trkpt lat="61.00769832684997" lon="25.57039531879122">
        <ele>175.26461791992188</ele>
        <time>2020-10-30T13:13:54.261Z</time>
      </trkpt>
      <trkpt lat="61.00761299907569" lon="25.570427505299406">
        <ele>175.18873596191406</ele>
        <time>2020-10-30T13:13:55.447Z</time>
      </trkpt>
      <trkpt lat="61.007613084646316" lon="25.570427397605332">
        <ele>175.18896484375</ele>
        <time>2020-10-30T13:13:56.633Z</time>
      </trkpt>
      <trkpt lat="61.007527084568174" lon="25.570535631850365">
        <ele>174.9578857421875</ele>
        <time>2020-10-30T13:13:57.821Z</time>
      </trkpt>
      <trkpt lat="61.007450390154126" lon="25.570610482245648">
        <ele>174.7960205078125</ele>
        <time>2020-10-30T13:13:59.011Z</time>
      </trkpt>
      <trkpt lat="61.00717253006401" lon="25.57075515389437">
        <ele>174.46762084960938</ele>
        <time>2020-10-30T13:14:00.206Z</time>
      </trkpt>
      <trkpt lat="61.00692576683465" lon="25.570757752284393">
        <ele>174.43270874023438</ele>
        <time>2020-10-30T13:14:01.406Z</time>
      </trkpt>
      <trkpt lat="61.00687430194915" lon="25.570818604901437">
        <ele>174.30242919921875</ele>
        <time>2020-10-30T13:14:02.607Z</time>
      </trkpt>
      <trkpt lat="61.006768270874026" lon="25.57087467983362">
        <ele>174.1753387451172</ele>
        <time>2020-10-30T13:14:03.811Z</time>
      </trkpt>
      <trkpt lat="61.00663432806136" lon="25.571127478033254">
        <ele>173.52346801757812</ele>
        <time>2020-10-30T13:14:05.018Z</time>
      </trkpt>
      <trkpt lat="61.006440119364875" lon="25.571567863225898">
        <ele>172.1451416015625</ele>
        <time>2020-10-30T13:14:06.231Z</time>
      </trkpt>
      <trkpt lat="61.006311038056026" lon="25.57175167836246">
        <ele>171.52951049804688</ele>
        <time>2020-10-30T13:14:07.447Z</time>
      </trkpt>
      <trkpt lat="61.00599403447805" lon="25.572047643363472">
        <ele>170.4465789794922</ele>
        <time>2020-10-30T13:14:08.670Z</time>
      </trkpt>
      <trkpt lat="61.005829246261726" lon="25.572028951719354">
        <ele>170.35975646972656</ele>
        <time>2020-10-30T13:14:09.896Z</time>
      </trkpt>
      <trkpt lat="61.00577082439662" lon="25.57205099612474">
        <ele>170.24986267089844</ele>
        <time>2020-10-30T13:14:11.124Z</time>
      </trkpt>
      <trkpt lat="61.00569731510581" lon="25.571985365822915">
        <ele>170.36923217773438</ele>
        <time>2020-10-30T13:14:12.353Z</time>
      </trkpt>
      <trkpt lat="61.0056347022891" lon="25.57183516211804">
        <ele>170.7311248779297</ele>
        <time>2020-10-30T13:14:13.584Z</time>
      </trkpt>
      <trkpt lat="61.0055244802624" lon="25.571674397215205">
        <ele>171.08216857910156</ele>
        <time>2020-10-30T13:14:14.818Z</time>
      </trkpt>
      <trkpt lat="61.0053268349856" lon="25.57156308554107">
        <ele>171.22332763671875</ele>
        <time>2020-10-30T13:14:16.056Z</time>
      </trkpt>
      <trkpt lat="61.00511946670115" lon="25.571572976186868">
        <ele>171.02188110351562</ele>
        <time>2020-10-30T13:14:17.298Z</time>
      </trkpt>
      <trkpt lat="61.00499809674323" lon="25.571556212380507">
        <ele>170.96620178222656</ele>
        <time>2020-10-30T13:14:18.543Z</time>
      </trkpt>
      <trkpt lat="61.00467480673788" lon="25.57154657319184">
        <ele>170.72128295898438</ele>
        <time>2020-10-30T13:14:19.794Z</time>
      </trkpt>
      <trkpt lat="61.004499457323526" lon="25.57152117602528">
        <ele>170.6440887451172</ele>
        <time>2020-10-30T13:14:21.049Z</time>
      </trkpt>
      <trkpt lat="61.0044044903606" lon="25.57142972946164">
        <ele>170.81668090820312</ele>
        <time>2020-10-30T13:14:22.306Z</time>
      </trkpt>
      <trkpt lat="61.00427406794726" lon="25.571402739733468">
        <ele>170.7816162109375</ele>
        <time>2020-10-30T13:14:23.565Z</time>
      </trkpt>
      <trkpt lat="61.003985981935244" lon="25.571503490209583">
        <ele>170.2616424560547</ele>
        <time>2020-10-30T13:14:24.830Z</time>
      </trkpt>
      <trkpt lat="61.00387349679468" lon="25.571621591225245">
        <ele>169.84127807617188</ele>
        <time>2020-10-30T13:14:26.098Z</time>
      </trkpt>
      <trkpt lat="61.00363779767752" lon="25.571657381951756">
        <ele>169.54457092285156</ele>
        <time>2020-10-30T13:14:27.371Z</time>
      </trkpt>
      <trkpt lat="61.00351600862442" lon="25.57157741859553">
        <ele>169.66293334960938</ele>
        <time>2020-10-30T13:14:28.646Z</time>
      </trkpt>
      <trkpt lat="61.00337192370888" lon="25.571519332006538">
        <ele>169.60958862304688</ele>
        <time>2020-10-30T13:14:29.924Z</time>
      </trkpt>
      <trkpt lat="61.003177882650476" lon="25.57138924486936">
        <ele>169.66590881347656</ele>
        <time>2020-10-30T13:14:31.206Z</time>
      </trkpt>
      <trkpt lat="61.00314527704713" lon="25.571169471368165">
        <ele>170.22149658203125</ele>
        <time>2020-10-30T13:14:32.490Z</time>
      </trkpt>
      <trkpt lat="61.00296053990124" lon="25.5710917711258">
        <ele>170.14776611328125</ele>
        <time>2020-10-30T13:14:33.778Z</time>
      </trkpt>
      <trkpt lat="61.00262593432662" lon="25.572136659175158">
        <ele>166.74256896972656</ele>
        <time>2020-10-30T13:14:35.078Z</time>
      </trkpt>
      <trkpt lat="61.00250163070258" lon="25.572362467646588">
        <ele>165.92559814453125</ele>
        <time>2020-10-30T13:14:36.382Z</time>
      </trkpt>
      <trkpt lat="61.00240942976771" lon="25.572692546993462">
        <ele>164.87095642089844</ele>
        <time>2020-10-30T13:14:37.689Z</time>
      </trkpt>
      <trkpt lat="61.00224631793197" lon="25.57299882173536">
        <ele>163.77139282226562</ele>
        <time>2020-10-30T13:14:39.001Z</time>
      </trkpt>
      <trkpt lat="61.00221664599476" lon="25.573176853358692">
        <ele>163.23385620117188</ele>
        <time>2020-10-30T13:14:40.315Z</time>
      </trkpt>
      <trkpt lat="61.002005505853866" lon="25.57343434542414">
        <ele>162.19400024414062</ele>
        <time>2020-10-30T13:14:41.634Z</time>
      </trkpt>
      <trkpt lat="61.001741811180075" lon="25.573643976822474">
        <ele>161.20423889160156</ele>
        <time>2020-10-30T13:14:42.958Z</time>
      </trkpt>
      <trkpt lat="61.00170166186388" lon="25.57368764653798">
        <ele>161.0211181640625</ele>
        <time>2020-10-30T13:14:44.283Z</time>
      </trkpt>
      <trkpt lat="61.00133034355339" lon="25.573869869112972">
        <ele>159.9391326904297</ele>
        <time>2020-10-30T13:14:45.616Z</time>
      </trkpt>
      <trkpt lat="61.00109095639879" lon="25.57400448247789">
        <ele>159.40635681152344</ele>
        <time>2020-10-30T13:14:46.954Z</time>
      </trkpt>
      <trkpt lat="61.0010510585397" lon="25.574001548811793">
        <ele>159.38327026367188</ele>
        <time>2020-10-30T13:14:48.293Z</time>
      </trkpt>
      <trkpt lat="61.00077445573504" lon="25.574243534356302">
        <ele>158.71961975097656</ele>
        <time>2020-10-30T13:14:49.638Z</time>
      </trkpt>
      <trkpt lat="61.00067957259113" lon="25.574367167428115">
        <ele>158.41400146484375</ele>
        <time>2020-10-30T13:14:50.985Z</time>
      </trkpt>
      <trkpt lat="61.00061729505056" lon="25.574527429416754">
        <ele>158.0615234375</ele>
        <time>2020-10-30T13:14:52.334Z</time>
      </trkpt>
      <trkpt lat="61.0005975137591" lon="25.574800008907864">
        <ele>157.5240478515625</ele>
        <time>2020-10-30T13:14:53.686Z</time>
      </trkpt>
      <trkpt lat="61.00064386568362" lon="25.5748869292438">
        <ele>157.39056396484375</ele>
        <time>2020-10-30T13:14:55.039Z</time>
      </trkpt>
      <trkpt lat="61.00074101194139" lon="25.57490243576462">
        <ele>157.43072509765625</ele>
        <time>2020-10-30T13:14:56.394Z</time>
      </trkpt>
      <trkpt lat="61.00082022092637" lon="25.574787771329238">
        <ele>157.70785522460938</ele>
        <time>2020-10-30T13:14:57.751Z</time>
      </trkpt>
      <trkpt lat="61.000965563127345" lon="25.57461610995234">
        <ele>158.14199829101562</ele>
        <time>2020-10-30T13:14:59.111Z</time>
      </trkpt>
      <trkpt lat="61.001126328030196" lon="25.574464900419088">
        <ele>158.54800415039062</ele>
        <time>2020-10-30T13:15:00.475Z</time>
      </trkpt>
      <trkpt lat="61.00121241017576" lon="25.574442856013732">
        <ele>158.65228271484375</ele>
        <time>2020-10-30T13:15:01.840Z</time>
      </trkpt>
      <trkpt lat="61.001386586123665" lon="25.574746532365655">
        <ele>158.19473266601562</ele>
        <time>2020-10-30T13:15:03.210Z</time>
      </trkpt>
      <trkpt lat="61.00145489863451" lon="25.574895897880175">
        <ele>157.95718383789062</ele>
        <time>2020-10-30T13:15:04.582Z</time>
      </trkpt>
      <trkpt lat="61.00161700464186" lon="25.57504165917634">
        <ele>157.79408264160156</ele>
        <time>2020-10-30T13:15:05.957Z</time>
      </trkpt>
      <trkpt lat="61.00168699353335" lon="25.574938226491163">
        <ele>158.0430145263672</ele>
        <time>2020-10-30T13:15:07.334Z</time>
      </trkpt>
      <trkpt lat="61.00177047728892" lon="25.574935209006043">
        <ele>158.10890197753906</ele>
        <time>2020-10-30T13:15:08.713Z</time>
      </trkpt>
      <trkpt lat="61.0018808669537" lon="25.57490595616399">
        <ele>158.24452209472656</ele>
        <time>2020-10-30T13:15:10.094Z</time>
      </trkpt>
      <trkpt lat="61.00201925217505" lon="25.57463538832958">
        <ele>158.9012451171875</ele>
        <time>2020-10-30T13:15:11.479Z</time>
      </trkpt>
      <trkpt lat="61.00216492965217" lon="25.5746555048972">
        <ele>159.07296752929688</ele>
        <time>2020-10-30T13:15:12.867Z</time>
      </trkpt>
      <trkpt lat="61.00219049445686" lon="25.57444587349892">
        <ele>159.69129943847656</ele>
        <time>2020-10-30T13:15:14.257Z</time>
      </trkpt>
      <trkpt lat="61.00229367568492" lon="25.574562298133955">
        <ele>159.53097534179688</ele>
        <time>2020-10-30T13:15:15.649Z</time>
      </trkpt>
      <trkpt lat="61.002371627384406" lon="25.57453421875829">
        <ele>159.73004150390625</ele>
        <time>2020-10-30T13:15:17.043Z</time>
      </trkpt>
      <trkpt lat="61.002446310141664" lon="25.574658019468135">
        <ele>159.50489807128906</ele>
        <time>2020-10-30T13:15:18.439Z</time>
      </trkpt>
      <trkpt lat="61.00246818690892" lon="25.574712082743602">
        <ele>159.3898468017578</ele>
        <time>2020-10-30T13:15:19.835Z</time>
      </trkpt>
      <trkpt lat="61.00255527488289" lon="25.574835464358316">
        <ele>159.18521118164062</ele>
        <time>2020-10-30T13:15:21.234Z</time>
      </trkpt>
      <trkpt lat="61.00266977168021" lon="25.575042162090543">
        <ele>158.79342651367188</ele>
        <time>2020-10-30T13:15:22.636Z</time>
      </trkpt>
      <trkpt lat="61.002710172453504" lon="25.575175685808045">
        <ele>158.4879913330078</ele>
        <time>2020-10-30T13:15:24.039Z</time>
      </trkpt>
      <trkpt lat="61.00272584661242" lon="25.575373247265823">
        <ele>157.96728515625</ele>
        <time>2020-10-30T13:15:25.444Z</time>
      </trkpt>
      <trkpt lat="61.00278468757268" lon="25.57551917619999">
        <ele>157.71803283691406</ele>
        <time>2020-10-30T13:15:26.851Z</time>
      </trkpt>
      <trkpt lat="61.00286045997736" lon="25.575629817321904">
        <ele>157.56019592285156</ele>
        <time>2020-10-30T13:15:28.260Z</time>
      </trkpt>
      <trkpt lat="61.00286666258572" lon="25.575756132602688">
        <ele>157.32217407226562</ele>
        <time>2020-10-30T13:15:29.670Z</time>
      </trkpt>
      <trkpt lat="61.00272827736435" lon="25.575860403478103">
        <ele>157.02239990234375</ele>
        <time>2020-10-30T13:15:31.083Z</time>
      </trkpt>
      <trkpt lat="61.00264529652296" lon="25.57597909122704">
        <ele>156.73483276367188</ele>
        <time>2020-10-30T13:15:32.498Z</time>
      </trkpt>
      <trkpt lat="61.00260950579642" lon="25.576574457809286">
        <ele>154.42723083496094</ele>
        <time>2020-10-30T13:15:33.919Z</time>
      </trkpt>
      <trkpt lat="61.002652756416765" lon="25.577009310945833">
        <ele>152.42367553710938</ele>
        <time>2020-10-30T13:15:35.344Z</time>
      </trkpt>
      <trkpt lat="61.002761385881875" lon="25.57713193818927">
        <ele>151.9281005859375</ele>
        <time>2020-10-30T13:15:36.772Z</time>
      </trkpt>
      <trkpt lat="61.00277068979441" lon="25.577314998954492">
        <ele>151.0782470703125</ele>
        <time>2020-10-30T13:15:38.202Z</time>
      </trkpt>
      <trkpt lat="61.00291594817636" lon="25.577689250931122">
        <ele>149.4316864013672</ele>
        <time>2020-10-30T13:15:39.636Z</time>
      </trkpt>
      <trkpt lat="61.00301393262445" lon="25.57784389704467">
        <ele>148.77862548828125</ele>
        <time>2020-10-30T13:15:41.073Z</time>
      </trkpt>
      <trkpt lat="61.00313982881008" lon="25.5781365931034">
        <ele>147.49972534179688</ele>
        <time>2020-10-30T13:15:42.513Z</time>
      </trkpt>
      <trkpt lat="61.003075958707896" lon="25.578259052708745">
        <ele>146.88075256347656</ele>
        <time>2020-10-30T13:15:43.955Z</time>
      </trkpt>
      <trkpt lat="61.0030019465029" lon="25.57861436158417">
        <ele>145.16497802734375</ele>
        <time>2020-10-30T13:15:45.401Z</time>
      </trkpt>
      <trkpt lat="61.0029950733423" lon="25.578736569732442">
        <ele>144.5882110595703</ele>
        <time>2020-10-30T13:15:46.848Z</time>
      </trkpt>
      <trkpt lat="61.002897591808406" lon="25.578881409019186">
        <ele>143.84033203125</ele>
        <time>2020-10-30T13:15:48.298Z</time>
      </trkpt>
      <trkpt lat="61.002854760283185" lon="25.57906388305126">
        <ele>142.95570373535156</ele>
        <time>2020-10-30T13:15:49.750Z</time>
      </trkpt>
      <trkpt lat="61.00280857599673" lon="25.579419694840862">
        <ele>141.25759887695312</ele>
        <time>2020-10-30T13:15:51.205Z</time>
      </trkpt>
      <trkpt lat="61.00273389323947" lon="25.579536203294982">
        <ele>140.65869140625</ele>
        <time>2020-10-30T13:15:52.662Z</time>
      </trkpt>
      <trkpt lat="61.002683015087236" lon="25.579766537994143">
        <ele>139.54432678222656</ele>
        <time>2020-10-30T13:15:54.121Z</time>
      </trkpt>
      <trkpt lat="61.002648314008084" lon="25.579827725887274">
        <ele>139.23304748535156</ele>
        <time>2020-10-30T13:15:55.581Z</time>
      </trkpt>
      <trkpt lat="61.002342123085235" lon="25.580233074724678">
        <ele>137.11598205566406</ele>
        <time>2020-10-30T13:15:57.049Z</time>
      </trkpt>
      <trkpt lat="61.00215193770225" lon="25.58095827698703">
        <ele>133.58583068847656</ele>
        <time>2020-10-30T13:15:58.525Z</time>
      </trkpt>
      <trkpt lat="61.001988993504604" lon="25.58106154203414">
        <ele>132.9853515625</ele>
        <time>2020-10-30T13:16:00.004Z</time>
      </trkpt>
      <trkpt lat="61.00181607484217" lon="25.580991804599748">
        <ele>133.1871795654297</ele>
        <time>2020-10-30T13:16:01.487Z</time>
      </trkpt>
      <trkpt lat="61.00181626895851" lon="25.580991834757505">
        <ele>133.1871795654297</ele>
        <time>2020-10-30T13:16:02.970Z</time>
      </trkpt>
      <trkpt lat="61.00168389222916" lon="25.580971268937">
        <ele>133.1881103515625</ele>
        <time>2020-10-30T13:16:04.455Z</time>
      </trkpt>
      <trkpt lat="61.00143494970496" lon="25.580979483202086">
        <ele>132.970458984375</ele>
        <time>2020-10-30T13:16:05.945Z</time>
      </trkpt>
      <trkpt lat="61.00136353588994" lon="25.5810333788395">
        <ele>132.6668701171875</ele>
        <time>2020-10-30T13:16:07.437Z</time>
      </trkpt>
      <trkpt lat="61.001171338850234" lon="25.581130106002103">
        <ele>132.075927734375</ele>
        <time>2020-10-30T13:16:08.933Z</time>
      </trkpt>
      <trkpt lat="61.00100403606292" lon="25.58169756084679">
        <ele>129.30035400390625</ele>
        <time>2020-10-30T13:16:10.435Z</time>
      </trkpt>
      <trkpt lat="61.00085659838612" lon="25.581885902211063">
        <ele>128.3767547607422</ele>
        <time>2020-10-30T13:16:11.941Z</time>
      </trkpt>
      <trkpt lat="61.00049651182585" lon="25.58198137208815">
        <ele>128.5453338623047</ele>
        <time>2020-10-30T13:16:13.454Z</time>
      </trkpt>
      <trkpt lat="61.000159643137394" lon="25.581575939431758">
        <ele>130.06826782226562</ele>
        <time>2020-10-30T13:16:14.975Z</time>
      </trkpt>
      <trkpt lat="60.99996442861252" lon="25.580975795164704">
        <ele>131.9585418701172</ele>
        <time>2020-10-30T13:16:16.503Z</time>
      </trkpt>
      <trkpt lat="60.99986568979319" lon="25.580713693052523">
        <ele>133.0844268798828</ele>
        <time>2020-10-30T13:16:18.034Z</time>
      </trkpt>
      <trkpt lat="60.99955354771906" lon="25.580794746056167">
        <ele>132.95111083984375</ele>
        <time>2020-10-30T13:16:19.571Z</time>
      </trkpt>
      <trkpt lat="60.99913453637952" lon="25.58187693357467">
        <ele>130.46762084960938</ele>
        <time>2020-10-30T13:16:21.122Z</time>
      </trkpt>
      <trkpt lat="60.99890219002359" lon="25.581999560818065">
        <ele>130.40802001953125</ele>
        <time>2020-10-30T13:16:22.678Z</time>
      </trkpt>
      <trkpt lat="60.99870865187937" lon="25.582509348168976">
        <ele>129.23350524902344</ele>
        <time>2020-10-30T13:16:24.240Z</time>
      </trkpt>
      <trkpt lat="60.99843330636017" lon="25.583391711115823">
        <ele>127.12904357910156</ele>
        <time>2020-10-30T13:16:25.812Z</time>
      </trkpt>
      <trkpt lat="60.99835753395549" lon="25.583809297531857">
        <ele>126.06765747070312</ele>
        <time>2020-10-30T13:16:27.389Z</time>
      </trkpt>
      <trkpt lat="60.99820456422261" lon="25.584333417937138">
        <ele>124.80492401123047</ele>
        <time>2020-10-30T13:16:28.972Z</time>
      </trkpt>
      <trkpt lat="60.9981939192056" lon="25.584763828664983">
        <ele>123.56592559814453</ele>
        <time>2020-10-30T13:16:30.559Z</time>
      </trkpt>
      <trkpt lat="60.997973810428306" lon="25.58489819057284">
        <ele>123.42700958251953</ele>
        <time>2020-10-30T13:16:32.150Z</time>
      </trkpt>
      <trkpt lat="60.99788404024534" lon="25.584774892777183">
        <ele>123.90453338623047</ele>
        <time>2020-10-30T13:16:33.744Z</time>
      </trkpt>
      <trkpt lat="60.9977842955976" lon="25.584772126749126">
        <ele>124.03250122070312</ele>
        <time>2020-10-30T13:16:35.340Z</time>
      </trkpt>
      <trkpt lat="60.99763249933117" lon="25.58504956774413">
        <ele>123.38247680664062</ele>
        <time>2020-10-30T13:16:36.940Z</time>
      </trkpt>
      <trkpt lat="60.99746310106806" lon="25.585188120603505">
        <ele>123.17015075683594</ele>
        <time>2020-10-30T13:16:38.543Z</time>
      </trkpt>
      <trkpt lat="60.99697795651249" lon="25.585528342053276">
        <ele>122.73177337646484</ele>
        <time>2020-10-30T13:16:40.157Z</time>
      </trkpt>
      <trkpt lat="60.99662214472284" lon="25.585660189390175">
        <ele>122.76322174072266</ele>
        <time>2020-10-30T13:16:41.778Z</time>
      </trkpt>
      <trkpt lat="60.99634855940333" lon="25.58573428541417">
        <ele>122.86922454833984</ele>
        <time>2020-10-30T13:16:43.404Z</time>
      </trkpt>
      <trkpt lat="60.996176143655084" lon="25.585753144696312">
        <ele>123.01952362060547</ele>
        <time>2020-10-30T13:16:45.034Z</time>
      </trkpt>
      <trkpt lat="60.996087379300505" lon="25.585781559348085">
        <ele>123.0407943725586</ele>
        <time>2020-10-30T13:16:46.666Z</time>
      </trkpt>
      <trkpt lat="60.99558622530986" lon="25.58578667230901">
        <ele>123.62674713134766</ele>
        <time>2020-10-30T13:16:48.308Z</time>
      </trkpt>
      <trkpt lat="60.99550785451522" lon="25.585751552134763">
        <ele>123.82611083984375</ele>
        <time>2020-10-30T13:16:49.951Z</time>
      </trkpt>
      <trkpt lat="60.99544909737397" lon="25.58584224432707">
        <ele>123.62458801269531</ele>
        <time>2020-10-30T13:16:51.596Z</time>
      </trkpt>
      <trkpt lat="60.99540140434494" lon="25.58594953268763">
        <ele>123.36001586914062</ele>
        <time>2020-10-30T13:16:53.242Z</time>
      </trkpt>
      <trkpt lat="60.995137542033085" lon="25.58600510470566">
        <ele>123.50312042236328</ele>
        <time>2020-10-30T13:16:54.893Z</time>
      </trkpt>
      <trkpt lat="60.994906955876836" lon="25.58577585965392">
        <ele>124.41204071044922</ele>
        <time>2020-10-30T13:16:56.550Z</time>
      </trkpt>
      <trkpt lat="60.99482766307284" lon="25.58546933345492">
        <ele>125.40753173828125</ele>
        <time>2020-10-30T13:16:58.210Z</time>
      </trkpt>
      <trkpt lat="60.99482120900738" lon="25.585377467796174">
        <ele>125.68927001953125</ele>
        <time>2020-10-30T13:16:59.871Z</time>
      </trkpt>
      <trkpt lat="60.994721883454815" lon="25.5850268527865">
        <ele>126.83622741699219</ele>
        <time>2020-10-30T13:17:01.536Z</time>
      </trkpt>
      <trkpt lat="60.994694055536286" lon="25.58489500544963">
        <ele>127.2583999633789</ele>
        <time>2020-10-30T13:17:03.202Z</time>
      </trkpt>
      <trkpt lat="60.994593388879196" lon="25.584746813401534">
        <ele>127.79950714111328</ele>
        <time>2020-10-30T13:17:04.871Z</time>
      </trkpt>
      <trkpt lat="60.994391887926945" lon="25.584848904982177">
        <ele>127.68670654296875</ele>
        <time>2020-10-30T13:17:06.544Z</time>
      </trkpt>
      <trkpt lat="60.99407899148155" lon="25.584803139790896">
        <ele>128.12429809570312</ele>
        <time>2020-10-30T13:17:08.223Z</time>
      </trkpt>
      <trkpt lat="60.99354942283917" lon="25.584600633010268">
        <ele>129.24000549316406</ele>
        <time>2020-10-30T13:17:09.913Z</time>
      </trkpt>
      <trkpt lat="60.99346778310226" lon="25.584483370184866">
        <ele>129.64434814453125</ele>
        <time>2020-10-30T13:17:11.605Z</time>
      </trkpt>
      <trkpt lat="60.99340734958041" lon="25.584302153438276">
        <ele>129.8980255126953</ele>
        <time>2020-10-30T13:17:13.299Z</time>
      </trkpt>
      <trkpt lat="60.99338714919377" lon="25.584100484848033">
        <ele>130.1351776123047</ele>
        <time>2020-10-30T13:17:14.995Z</time>
      </trkpt>
      <trkpt lat="60.99332361436773" lon="25.583862438797922">
        <ele>130.4532012939453</ele>
        <time>2020-10-30T13:17:16.694Z</time>
      </trkpt>
      <trkpt lat="60.993119263568396" lon="25.583528252318477">
        <ele>131.01019287109375</ele>
        <time>2020-10-30T13:17:18.398Z</time>
      </trkpt>
      <trkpt lat="60.992864788988086" lon="25.583309736102773">
        <ele>131.49038696289062</ele>
        <time>2020-10-30T13:17:20.108Z</time>
      </trkpt>
      <trkpt lat="60.99265272683786" lon="25.583020057529215">
        <ele>132.00672912597656</ele>
        <time>2020-10-30T13:17:21.823Z</time>
      </trkpt>
      <trkpt lat="60.99256915926325" lon="25.582188237458418">
        <ele>132.985107421875</ele>
        <time>2020-10-30T13:17:23.546Z</time>
      </trkpt>
      <trkpt lat="60.99249724346311" lon="25.581974770775613">
        <ele>133.28463745117188</ele>
        <time>2020-10-30T13:17:25.271Z</time>
      </trkpt>
      <trkpt lat="60.992559100979435" lon="25.58113262057302">
        <ele>135.4065704345703</ele>
        <time>2020-10-30T13:17:27.005Z</time>
      </trkpt>
      <trkpt lat="60.99261986977743" lon="25.58052962645889">
        <ele>137.11422729492188</ele>
        <time>2020-10-30T13:17:28.745Z</time>
      </trkpt>
      <trkpt lat="60.99269094831633" lon="25.580274062231137">
        <ele>137.87060546875</ele>
        <time>2020-10-30T13:17:30.488Z</time>
      </trkpt>
      <trkpt lat="60.99275758444654" lon="25.579740470275276">
        <ele>139.39097595214844</ele>
        <time>2020-10-30T13:17:32.236Z</time>
      </trkpt>
      <trkpt lat="60.99288289389896" lon="25.579103445634196">
        <ele>141.239013671875</ele>
        <time>2020-10-30T13:17:33.991Z</time>
      </trkpt>
      <trkpt lat="60.99298942788825" lon="25.578492488712072">
        <ele>143.0015869140625</ele>
        <time>2020-10-30T13:17:35.752Z</time>
      </trkpt>
      <trkpt lat="60.99315513811396" lon="25.57805528864259">
        <ele>144.32730102539062</ele>
        <time>2020-10-30T13:17:37.518Z</time>
      </trkpt>
      <trkpt lat="60.99323510147023" lon="25.577414911240304">
        <ele>146.15194702148438</ele>
        <time>2020-10-30T13:17:39.291Z</time>
      </trkpt>
      <trkpt lat="60.99323275453734" lon="25.57702615857125">
        <ele>147.22299194335938</ele>
        <time>2020-10-30T13:17:41.068Z</time>
      </trkpt>
      <trkpt lat="60.99324668767139" lon="25.576892631108798">
        <ele>147.60147094726562</ele>
        <time>2020-10-30T13:17:42.846Z</time>
      </trkpt>
      <trkpt lat="60.9933182621089" lon="25.576713446917132">
        <ele>148.14744567871094</ele>
        <time>2020-10-30T13:17:44.626Z</time>
      </trkpt>
    </trkseg>
  </trk>
</gpx>
